sensor_id;sensor_type;location;lat;lon;timestamp;pressure;altitude;pressure_sealevel;temperature
20103;BMP180;10210;52.284;9.892;2023-05-07T00:01:02;100955.00;;;17.10
20103;BMP180;10210;52.284;9.892;2023-05-07T00:03:27;100955.00;;;17.00
20103;BMP180;10210;52.284;9.892;2023-05-07T00:05:54;100954.00;;;17.00
20103;BMP180;10210;52.284;9.892;2023-05-07T00:08:20;100952.00;;;17.00
20103;BMP180;10210;52.284;9.892;2023-05-07T00:10:46;100952.00;;;17.00
20103;BMP180;10210;52.284;9.892;2023-05-07T00:13:12;100945.00;;;17.00
20103;BMP180;10210;52.284;9.892;2023-05-07T00:15:37;100947.00;;;16.90
20103;BMP180;10210;52.284;9.892;2023-05-07T00:18:03;100950.00;;;16.90
20103;BMP180;10210;52.284;9.892;2023-05-07T00:20:29;100945.00;;;16.90
20103;BMP180;10210;52.284;9.892;2023-05-07T00:22:55;100949.00;;;16.80
20103;BMP180;10210;52.284;9.892;2023-05-07T00:25:20;100952.00;;;16.80
20103;BMP180;10210;52.284;9.892;2023-05-07T00:27:46;100946.00;;;16.70
20103;BMP180;10210;52.284;9.892;2023-05-07T00:30:12;100943.00;;;16.70
20103;BMP180;10210;52.284;9.892;2023-05-07T00:32:38;100933.00;;;16.70
20103;BMP180;10210;52.284;9.892;2023-05-07T00:35:05;100933.00;;;16.60
20103;BMP180;10210;52.284;9.892;2023-05-07T00:37:31;100921.00;;;16.60
20103;BMP180;10210;52.284;9.892;2023-05-07T00:39:57;100928.00;;;16.60
20103;BMP180;10210;52.284;9.892;2023-05-07T00:42:22;100927.00;;;16.50
20103;BMP180;10210;52.284;9.892;2023-05-07T00:44:49;100929.00;;;16.50
20103;BMP180;10210;52.284;9.892;2023-05-07T00:47:16;100910.00;;;16.50
20103;BMP180;10210;52.284;9.892;2023-05-07T00:49:44;100919.00;;;16.50
20103;BMP180;10210;52.284;9.892;2023-05-07T00:52:14;100909.00;;;16.50
20103;BMP180;10210;52.284;9.892;2023-05-07T00:54:41;100916.00;;;16.40
20103;BMP180;10210;52.284;9.892;2023-05-07T00:57:09;100916.00;;;16.40
20103;BMP180;10210;52.284;9.892;2023-05-07T00:59:37;100927.00;;;16.40
20103;BMP180;10210;52.284;9.892;2023-05-07T01:02:02;100920.00;;;16.40
20103;BMP180;10210;52.284;9.892;2023-05-07T01:04:28;100936.00;;;16.40
20103;BMP180;10210;52.284;9.892;2023-05-07T01:06:59;100916.00;;;16.40
20103;BMP180;10210;52.284;9.892;2023-05-07T01:09:26;100928.00;;;16.40
20103;BMP180;10210;52.284;9.892;2023-05-07T01:11:53;100919.00;;;16.30
20103;BMP180;10210;52.284;9.892;2023-05-07T01:14:20;100916.00;;;16.30
20103;BMP180;10210;52.284;9.892;2023-05-07T01:16:49;100931.00;;;16.30
20103;BMP180;10210;52.284;9.892;2023-05-07T01:19:18;100918.00;;;16.30
20103;BMP180;10210;52.284;9.892;2023-05-07T01:21:47;100926.00;;;16.20
20103;BMP180;10210;52.284;9.892;2023-05-07T01:24:14;100927.00;;;16.20
20103;BMP180;10210;52.284;9.892;2023-05-07T01:26:45;100934.00;;;16.30
20103;BMP180;10210;52.284;9.892;2023-05-07T01:29:11;100933.00;;;16.30
20103;BMP180;10210;52.284;9.892;2023-05-07T01:31:37;100935.00;;;16.30
20103;BMP180;10210;52.284;9.892;2023-05-07T01:34:07;100937.00;;;16.30
20103;BMP180;10210;52.284;9.892;2023-05-07T01:36:35;100931.00;;;16.30
20103;BMP180;10210;52.284;9.892;2023-05-07T01:39:02;100924.00;;;16.20
20103;BMP180;10210;52.284;9.892;2023-05-07T01:41:28;100932.00;;;16.20
20103;BMP180;10210;52.284;9.892;2023-05-07T01:43:55;100932.00;;;16.20
20103;BMP180;10210;52.284;9.892;2023-05-07T01:46:22;100921.00;;;16.20
20103;BMP180;10210;52.284;9.892;2023-05-07T01:48:49;100921.00;;;16.20
20103;BMP180;10210;52.284;9.892;2023-05-07T01:51:15;100921.00;;;16.20
20103;BMP180;10210;52.284;9.892;2023-05-07T01:53:41;100925.00;;;16.20
20103;BMP180;10210;52.284;9.892;2023-05-07T01:56:07;100930.00;;;16.20
20103;BMP180;10210;52.284;9.892;2023-05-07T01:58:33;100932.00;;;16.10
20103;BMP180;10210;52.284;9.892;2023-05-07T02:00:58;100932.00;;;16.10
20103;BMP180;10210;52.284;9.892;2023-05-07T02:03:24;100926.00;;;16.10
20103;BMP180;10210;52.284;9.892;2023-05-07T02:05:51;100927.00;;;16.10
20103;BMP180;10210;52.284;9.892;2023-05-07T02:08:16;100931.00;;;16.00
20103;BMP180;10210;52.284;9.892;2023-05-07T02:10:42;100933.00;;;16.00
20103;BMP180;10210;52.284;9.892;2023-05-07T02:13:07;100925.00;;;16.00
20103;BMP180;10210;52.284;9.892;2023-05-07T02:15:33;100934.00;;;16.00
20103;BMP180;10210;52.284;9.892;2023-05-07T02:18:05;100933.00;;;15.90
20103;BMP180;10210;52.284;9.892;2023-05-07T02:20:40;100930.00;;;15.90
20103;BMP180;10210;52.284;9.892;2023-05-07T02:23:05;100948.00;;;15.90
20103;BMP180;10210;52.284;9.892;2023-05-07T02:25:31;100942.00;;;15.90
20103;BMP180;10210;52.284;9.892;2023-05-07T02:27:57;100936.00;;;15.90
20103;BMP180;10210;52.284;9.892;2023-05-07T02:30:22;100940.00;;;15.90
20103;BMP180;10210;52.284;9.892;2023-05-07T02:32:49;100949.00;;;15.90
20103;BMP180;10210;52.284;9.892;2023-05-07T02:35:15;100945.00;;;15.80
20103;BMP180;10210;52.284;9.892;2023-05-07T02:37:40;100952.00;;;15.80
20103;BMP180;10210;52.284;9.892;2023-05-07T02:40:07;100948.00;;;15.80
20103;BMP180;10210;52.284;9.892;2023-05-07T02:42:33;100944.00;;;15.80
20103;BMP180;10210;52.284;9.892;2023-05-07T02:44:58;100953.00;;;15.80
20103;BMP180;10210;52.284;9.892;2023-05-07T02:47:25;100953.00;;;15.80
20103;BMP180;10210;52.284;9.892;2023-05-07T02:49:54;100951.00;;;15.80
20103;BMP180;10210;52.284;9.892;2023-05-07T02:52:21;100950.00;;;15.70
20103;BMP180;10210;52.284;9.892;2023-05-07T02:54:46;100939.00;;;15.70
20103;BMP180;10210;52.284;9.892;2023-05-07T02:57:12;100947.00;;;15.70
20103;BMP180;10210;52.284;9.892;2023-05-07T02:59:37;100943.00;;;15.60
20103;BMP180;10210;52.284;9.892;2023-05-07T03:02:03;100932.00;;;15.60
20103;BMP180;10210;52.284;9.892;2023-05-07T03:04:29;100940.00;;;15.60
20103;BMP180;10210;52.284;9.892;2023-05-07T03:06:54;100936.00;;;15.50
20103;BMP180;10210;52.284;9.892;2023-05-07T03:09:20;100941.00;;;15.50
20103;BMP180;10210;52.284;9.892;2023-05-07T03:11:46;100943.00;;;15.50
20103;BMP180;10210;52.284;9.892;2023-05-07T03:14:12;100939.00;;;15.50
20103;BMP180;10210;52.284;9.892;2023-05-07T03:16:38;100940.00;;;15.50
20103;BMP180;10210;52.284;9.892;2023-05-07T03:19:04;100933.00;;;15.50
20103;BMP180;10210;52.284;9.892;2023-05-07T03:21:30;100941.00;;;15.50
20103;BMP180;10210;52.284;9.892;2023-05-07T03:23:56;100935.00;;;15.50
20103;BMP180;10210;52.284;9.892;2023-05-07T03:26:22;100939.00;;;15.50
20103;BMP180;10210;52.284;9.892;2023-05-07T03:28:47;100938.00;;;15.40
20103;BMP180;10210;52.284;9.892;2023-05-07T03:31:13;100942.00;;;15.40
20103;BMP180;10210;52.284;9.892;2023-05-07T03:33:53;100932.00;;;15.40
20103;BMP180;10210;52.284;9.892;2023-05-07T03:36:21;100931.00;;;15.40
20103;BMP180;10210;52.284;9.892;2023-05-07T03:38:47;100926.00;;;15.40
20103;BMP180;10210;52.284;9.892;2023-05-07T03:41:13;100927.00;;;15.40
20103;BMP180;10210;52.284;9.892;2023-05-07T03:43:39;100918.00;;;15.40
20103;BMP180;10210;52.284;9.892;2023-05-07T03:46:05;100934.00;;;15.30
20103;BMP180;10210;52.284;9.892;2023-05-07T03:48:30;100931.00;;;15.30
20103;BMP180;10210;52.284;9.892;2023-05-07T03:50:58;100942.00;;;15.30
20103;BMP180;10210;52.284;9.892;2023-05-07T03:53:23;100939.00;;;15.30
20103;BMP180;10210;52.284;9.892;2023-05-07T03:55:49;100929.00;;;15.30
20103;BMP180;10210;52.284;9.892;2023-05-07T03:58:15;100936.00;;;15.20
20103;BMP180;10210;52.284;9.892;2023-05-07T04:00:41;100933.00;;;15.20
20103;BMP180;10210;52.284;9.892;2023-05-07T04:03:06;100938.00;;;15.20
20103;BMP180;10210;52.284;9.892;2023-05-07T04:05:32;100934.00;;;15.20
20103;BMP180;10210;52.284;9.892;2023-05-07T04:07:59;100938.00;;;15.20
20103;BMP180;10210;52.284;9.892;2023-05-07T04:10:25;100945.00;;;15.20
20103;BMP180;10210;52.284;9.892;2023-05-07T04:12:51;100942.00;;;15.20
20103;BMP180;10210;52.284;9.892;2023-05-07T04:15:17;100944.00;;;15.20
20103;BMP180;10210;52.284;9.892;2023-05-07T04:17:43;100955.00;;;15.20
20103;BMP180;10210;52.284;9.892;2023-05-07T04:20:15;100955.00;;;15.20
20103;BMP180;10210;52.284;9.892;2023-05-07T04:22:42;100948.00;;;15.10
20103;BMP180;10210;52.284;9.892;2023-05-07T04:25:09;100949.00;;;15.10
20103;BMP180;10210;52.284;9.892;2023-05-07T04:27:35;100953.00;;;15.10
20103;BMP180;10210;52.284;9.892;2023-05-07T04:30:02;100956.00;;;15.00
20103;BMP180;10210;52.284;9.892;2023-05-07T04:32:29;100955.00;;;15.00
20103;BMP180;10210;52.284;9.892;2023-05-07T04:34:56;100965.00;;;15.00
20103;BMP180;10210;52.284;9.892;2023-05-07T04:37:22;100958.00;;;15.00
20103;BMP180;10210;52.284;9.892;2023-05-07T04:39:48;100969.00;;;15.00
20103;BMP180;10210;52.284;9.892;2023-05-07T04:42:17;100974.00;;;15.00
20103;BMP180;10210;52.284;9.892;2023-05-07T04:44:44;100980.00;;;15.00
20103;BMP180;10210;52.284;9.892;2023-05-07T04:47:13;100967.00;;;15.00
20103;BMP180;10210;52.284;9.892;2023-05-07T04:49:38;100969.00;;;15.00
20103;BMP180;10210;52.284;9.892;2023-05-07T04:52:04;100979.00;;;15.00
20103;BMP180;10210;52.284;9.892;2023-05-07T04:54:30;100973.00;;;15.00
20103;BMP180;10210;52.284;9.892;2023-05-07T04:56:56;100970.00;;;15.00
20103;BMP180;10210;52.284;9.892;2023-05-07T04:59:22;100972.00;;;15.00
20103;BMP180;10210;52.284;9.892;2023-05-07T05:01:47;100973.00;;;15.00
20103;BMP180;10210;52.284;9.892;2023-05-07T05:04:13;100979.00;;;14.90
20103;BMP180;10210;52.284;9.892;2023-05-07T05:06:39;100976.00;;;14.90
20103;BMP180;10210;52.284;9.892;2023-05-07T05:09:05;100983.00;;;14.90
20103;BMP180;10210;52.284;9.892;2023-05-07T05:11:31;100986.00;;;14.90
20103;BMP180;10210;52.284;9.892;2023-05-07T05:13:59;100983.00;;;15.00
20103;BMP180;10210;52.284;9.892;2023-05-07T05:16:25;100985.00;;;14.90
20103;BMP180;10210;52.284;9.892;2023-05-07T05:18:50;100998.00;;;15.00
20103;BMP180;10210;52.284;9.892;2023-05-07T05:21:17;100995.00;;;15.00
20103;BMP180;10210;52.284;9.892;2023-05-07T05:23:43;101005.00;;;14.90
20103;BMP180;10210;52.284;9.892;2023-05-07T05:26:09;101016.00;;;15.00
20103;BMP180;10210;52.284;9.892;2023-05-07T05:28:34;101008.00;;;15.00
20103;BMP180;10210;52.284;9.892;2023-05-07T05:31:00;101000.00;;;15.00
20103;BMP180;10210;52.284;9.892;2023-05-07T05:33:26;101011.00;;;15.00
20103;BMP180;10210;52.284;9.892;2023-05-07T05:35:53;101007.00;;;15.00
20103;BMP180;10210;52.284;9.892;2023-05-07T05:38:19;101002.00;;;15.00
20103;BMP180;10210;52.284;9.892;2023-05-07T05:40:46;101010.00;;;15.10
20103;BMP180;10210;52.284;9.892;2023-05-07T05:43:13;101005.00;;;15.10
20103;BMP180;10210;52.284;9.892;2023-05-07T05:45:38;101001.00;;;15.00
20103;BMP180;10210;52.284;9.892;2023-05-07T05:48:04;101007.00;;;15.00
20103;BMP180;10210;52.284;9.892;2023-05-07T05:50:30;101010.00;;;15.00
20103;BMP180;10210;52.284;9.892;2023-05-07T05:52:55;101015.00;;;15.00
20103;BMP180;10210;52.284;9.892;2023-05-07T05:55:21;101038.00;;;15.00
20103;BMP180;10210;52.284;9.892;2023-05-07T05:57:47;101024.00;;;15.00
20103;BMP180;10210;52.284;9.892;2023-05-07T06:00:13;101030.00;;;15.00
20103;BMP180;10210;52.284;9.892;2023-05-07T06:02:39;101036.00;;;15.00
20103;BMP180;10210;52.284;9.892;2023-05-07T06:05:05;101024.00;;;15.00
20103;BMP180;10210;52.284;9.892;2023-05-07T06:07:31;101016.00;;;15.00
20103;BMP180;10210;52.284;9.892;2023-05-07T06:09:56;101025.00;;;15.00
20103;BMP180;10210;52.284;9.892;2023-05-07T06:12:22;101022.00;;;15.00
20103;BMP180;10210;52.284;9.892;2023-05-07T06:14:47;101016.00;;;15.00
20103;BMP180;10210;52.284;9.892;2023-05-07T06:17:13;101016.00;;;15.00
20103;BMP180;10210;52.284;9.892;2023-05-07T06:19:39;101011.00;;;15.00
20103;BMP180;10210;52.284;9.892;2023-05-07T06:22:04;101014.00;;;15.00
20103;BMP180;10210;52.284;9.892;2023-05-07T06:24:30;101018.00;;;15.00
20103;BMP180;10210;52.284;9.892;2023-05-07T06:26:56;101015.00;;;15.00
20103;BMP180;10210;52.284;9.892;2023-05-07T06:29:24;101020.00;;;15.00
20103;BMP180;10210;52.284;9.892;2023-05-07T06:31:54;101019.00;;;15.00
20103;BMP180;10210;52.284;9.892;2023-05-07T06:34:19;101020.00;;;15.10
20103;BMP180;10210;52.284;9.892;2023-05-07T06:36:45;101015.00;;;15.10
20103;BMP180;10210;52.284;9.892;2023-05-07T06:39:11;101024.00;;;15.10
20103;BMP180;10210;52.284;9.892;2023-05-07T06:41:36;101017.00;;;15.10
20103;BMP180;10210;52.284;9.892;2023-05-07T06:44:03;101008.00;;;15.10
20103;BMP180;10210;52.284;9.892;2023-05-07T06:46:29;101026.00;;;15.10
20103;BMP180;10210;52.284;9.892;2023-05-07T06:48:54;101016.00;;;15.10
20103;BMP180;10210;52.284;9.892;2023-05-07T06:51:22;101021.00;;;15.20
20103;BMP180;10210;52.284;9.892;2023-05-07T06:53:49;101027.00;;;15.10
20103;BMP180;10210;52.284;9.892;2023-05-07T06:56:14;101033.00;;;15.10
20103;BMP180;10210;52.284;9.892;2023-05-07T06:58:40;101035.00;;;15.10
20103;BMP180;10210;52.284;9.892;2023-05-07T07:01:06;101041.00;;;15.20
20103;BMP180;10210;52.284;9.892;2023-05-07T07:03:31;101033.00;;;15.20
20103;BMP180;10210;52.284;9.892;2023-05-07T07:05:57;101027.00;;;15.30
20103;BMP180;10210;52.284;9.892;2023-05-07T07:08:23;101030.00;;;15.30
20103;BMP180;10210;52.284;9.892;2023-05-07T07:10:48;101027.00;;;15.30
20103;BMP180;10210;52.284;9.892;2023-05-07T07:13:14;101031.00;;;15.30
20103;BMP180;10210;52.284;9.892;2023-05-07T07:15:40;101039.00;;;15.30
20103;BMP180;10210;52.284;9.892;2023-05-07T07:18:06;101033.00;;;15.40
20103;BMP180;10210;52.284;9.892;2023-05-07T07:20:32;101035.00;;;15.40
20103;BMP180;10210;52.284;9.892;2023-05-07T07:22:58;101037.00;;;15.50
20103;BMP180;10210;52.284;9.892;2023-05-07T07:25:23;101044.00;;;15.50
20103;BMP180;10210;52.284;9.892;2023-05-07T07:27:49;101045.00;;;15.50
20103;BMP180;10210;52.284;9.892;2023-05-07T07:30:15;101038.00;;;15.60
20103;BMP180;10210;52.284;9.892;2023-05-07T07:32:41;101037.00;;;15.60
20103;BMP180;10210;52.284;9.892;2023-05-07T07:35:07;101044.00;;;15.60
20103;BMP180;10210;52.284;9.892;2023-05-07T07:37:32;101052.00;;;15.70
20103;BMP180;10210;52.284;9.892;2023-05-07T07:39:58;101048.00;;;15.70
20103;BMP180;10210;52.284;9.892;2023-05-07T07:42:24;101054.00;;;15.70
20103;BMP180;10210;52.284;9.892;2023-05-07T07:44:50;101053.00;;;15.70
20103;BMP180;10210;52.284;9.892;2023-05-07T07:47:16;101055.00;;;15.70
20103;BMP180;10210;52.284;9.892;2023-05-07T07:49:41;101053.00;;;15.70
20103;BMP180;10210;52.284;9.892;2023-05-07T07:52:07;101058.00;;;15.70
20103;BMP180;10210;52.284;9.892;2023-05-07T07:54:33;101051.00;;;15.70
20103;BMP180;10210;52.284;9.892;2023-05-07T07:56:58;101059.00;;;15.70
20103;BMP180;10210;52.284;9.892;2023-05-07T07:59:24;101062.00;;;15.80
20103;BMP180;10210;52.284;9.892;2023-05-07T08:01:50;101081.00;;;15.80
20103;BMP180;10210;52.284;9.892;2023-05-07T08:04:17;101068.00;;;15.80
20103;BMP180;10210;52.284;9.892;2023-05-07T08:06:43;101068.00;;;15.80
20103;BMP180;10210;52.284;9.892;2023-05-07T08:09:08;101070.00;;;15.80
20103;BMP180;10210;52.284;9.892;2023-05-07T08:11:34;101071.00;;;15.90
20103;BMP180;10210;52.284;9.892;2023-05-07T08:14:00;101060.00;;;15.90
20103;BMP180;10210;52.284;9.892;2023-05-07T08:16:26;101074.00;;;15.90
20103;BMP180;10210;52.284;9.892;2023-05-07T08:19:00;101075.00;;;15.90
20103;BMP180;10210;52.284;9.892;2023-05-07T08:21:25;101066.00;;;16.00
20103;BMP180;10210;52.284;9.892;2023-05-07T08:23:51;101077.00;;;16.00
20103;BMP180;10210;52.284;9.892;2023-05-07T08:26:17;101078.00;;;16.00
20103;BMP180;10210;52.284;9.892;2023-05-07T08:28:42;101083.00;;;16.00
20103;BMP180;10210;52.284;9.892;2023-05-07T08:31:08;101075.00;;;16.10
20103;BMP180;10210;52.284;9.892;2023-05-07T08:33:34;101071.00;;;16.10
20103;BMP180;10210;52.284;9.892;2023-05-07T08:35:59;101080.00;;;16.20
20103;BMP180;10210;52.284;9.892;2023-05-07T08:38:25;101065.00;;;16.10
20103;BMP180;10210;52.284;9.892;2023-05-07T08:40:52;101071.00;;;16.10
20103;BMP180;10210;52.284;9.892;2023-05-07T08:43:19;101078.00;;;16.10
20103;BMP180;10210;52.284;9.892;2023-05-07T08:45:53;101085.00;;;16.20
20103;BMP180;10210;52.284;9.892;2023-05-07T08:48:25;101079.00;;;16.20
20103;BMP180;10210;52.284;9.892;2023-05-07T08:50:51;101081.00;;;16.20
20103;BMP180;10210;52.284;9.892;2023-05-07T08:53:17;101089.00;;;16.30
20103;BMP180;10210;52.284;9.892;2023-05-07T08:55:43;101092.00;;;16.30
20103;BMP180;10210;52.284;9.892;2023-05-07T08:58:09;101086.00;;;16.20
20103;BMP180;10210;52.284;9.892;2023-05-07T09:00:37;101082.00;;;16.20
20103;BMP180;10210;52.284;9.892;2023-05-07T09:03:03;101090.00;;;16.20
20103;BMP180;10210;52.284;9.892;2023-05-07T09:05:28;101083.00;;;16.30
20103;BMP180;10210;52.284;9.892;2023-05-07T09:07:54;101080.00;;;16.30
20103;BMP180;10210;52.284;9.892;2023-05-07T09:10:21;101082.00;;;16.40
20103;BMP180;10210;52.284;9.892;2023-05-07T09:12:47;101085.00;;;16.40
20103;BMP180;10210;52.284;9.892;2023-05-07T09:15:18;101082.00;;;16.50
20103;BMP180;10210;52.284;9.892;2023-05-07T09:17:44;101086.00;;;16.60
20103;BMP180;10210;52.284;9.892;2023-05-07T09:20:10;101078.00;;;16.60
20103;BMP180;10210;52.284;9.892;2023-05-07T09:22:39;101073.00;;;16.60
20103;BMP180;10210;52.284;9.892;2023-05-07T09:25:07;101082.00;;;16.70
20103;BMP180;10210;52.284;9.892;2023-05-07T09:27:33;101067.00;;;16.70
20103;BMP180;10210;52.284;9.892;2023-05-07T09:29:59;101076.00;;;16.70
20103;BMP180;10210;52.284;9.892;2023-05-07T09:32:25;101074.00;;;16.80
20103;BMP180;10210;52.284;9.892;2023-05-07T09:34:52;101066.00;;;16.80
20103;BMP180;10210;52.284;9.892;2023-05-07T09:37:18;101070.00;;;16.90
20103;BMP180;10210;52.284;9.892;2023-05-07T09:39:49;101073.00;;;16.90
20103;BMP180;10210;52.284;9.892;2023-05-07T09:42:15;101084.00;;;16.90
20103;BMP180;10210;52.284;9.892;2023-05-07T09:44:43;101079.00;;;16.90
20103;BMP180;10210;52.284;9.892;2023-05-07T09:47:11;101079.00;;;17.00
20103;BMP180;10210;52.284;9.892;2023-05-07T09:49:47;101082.00;;;17.00
20103;BMP180;10210;52.284;9.892;2023-05-07T09:52:14;101078.00;;;17.00
20103;BMP180;10210;52.284;9.892;2023-05-07T09:54:43;101073.00;;;17.00
20103;BMP180;10210;52.284;9.892;2023-05-07T09:57:13;101082.00;;;17.00
20103;BMP180;10210;52.284;9.892;2023-05-07T09:59:43;101080.00;;;17.00
20103;BMP180;10210;52.284;9.892;2023-05-07T10:02:10;101087.00;;;17.10
20103;BMP180;10210;52.284;9.892;2023-05-07T10:04:37;101076.00;;;17.10
20103;BMP180;10210;52.284;9.892;2023-05-07T10:07:04;101090.00;;;17.10
20103;BMP180;10210;52.284;9.892;2023-05-07T10:09:30;101086.00;;;17.10
20103;BMP180;10210;52.284;9.892;2023-05-07T10:11:57;101085.00;;;17.20
20103;BMP180;10210;52.284;9.892;2023-05-07T10:14:23;101088.00;;;17.10
20103;BMP180;10210;52.284;9.892;2023-05-07T10:16:50;101085.00;;;17.10
20103;BMP180;10210;52.284;9.892;2023-05-07T10:19:17;101094.00;;;17.10
20103;BMP180;10210;52.284;9.892;2023-05-07T10:21:56;101090.00;;;17.10
20103;BMP180;10210;52.284;9.892;2023-05-07T10:24:26;101096.00;;;17.10
20103;BMP180;10210;52.284;9.892;2023-05-07T10:26:56;101086.00;;;17.10
20103;BMP180;10210;52.284;9.892;2023-05-07T10:30:00;101095.00;;;17.00
20103;BMP180;10210;52.284;9.892;2023-05-07T10:32:42;101101.00;;;17.10
20103;BMP180;10210;52.284;9.892;2023-05-07T10:35:18;101091.00;;;17.10
20103;BMP180;10210;52.284;9.892;2023-05-07T10:37:45;101089.00;;;17.20
20103;BMP180;10210;52.284;9.892;2023-05-07T10:40:12;101106.00;;;17.30
20103;BMP180;10210;52.284;9.892;2023-05-07T10:42:38;101102.00;;;17.30
20103;BMP180;10210;52.284;9.892;2023-05-07T10:45:14;101104.00;;;17.30
20103;BMP180;10210;52.284;9.892;2023-05-07T10:48:16;101104.00;;;17.30
20103;BMP180;10210;52.284;9.892;2023-05-07T10:50:44;101117.00;;;17.40
20103;BMP180;10210;52.284;9.892;2023-05-07T10:53:21;101113.00;;;17.40
20103;BMP180;10210;52.284;9.892;2023-05-07T10:58:42;101124.00;;;17.50
20103;BMP180;10210;52.284;9.892;2023-05-07T11:01:55;101111.00;;;17.50
20103;BMP180;10210;52.284;9.892;2023-05-07T11:04:23;101118.00;;;17.50
20103;BMP180;10210;52.284;9.892;2023-05-07T11:15:13;101122.00;;;17.40
20103;BMP180;10210;52.284;9.892;2023-05-07T11:18:00;101117.00;;;17.40
20103;BMP180;10210;52.284;9.892;2023-05-07T11:20:53;101128.00;;;17.40
20103;BMP180;10210;52.284;9.892;2023-05-07T11:26:05;101122.00;;;17.50
20103;BMP180;10210;52.284;9.892;2023-05-07T11:28:38;101117.00;;;17.50
20103;BMP180;10210;52.284;9.892;2023-05-07T11:31:05;101118.00;;;17.60
20103;BMP180;10210;52.284;9.892;2023-05-07T11:33:31;101109.00;;;17.70
20103;BMP180;10210;52.284;9.892;2023-05-07T11:35:57;101118.00;;;17.70
20103;BMP180;10210;52.284;9.892;2023-05-07T11:38:25;101122.00;;;17.70
20103;BMP180;10210;52.284;9.892;2023-05-07T11:40:52;101119.00;;;17.80
20103;BMP180;10210;52.284;9.892;2023-05-07T11:43:18;101117.00;;;17.90
20103;BMP180;10210;52.284;9.892;2023-05-07T11:45:48;101114.00;;;18.00
20103;BMP180;10210;52.284;9.892;2023-05-07T11:48:16;101111.00;;;18.10
20103;BMP180;10210;52.284;9.892;2023-05-07T11:51:00;101112.00;;;18.10
20103;BMP180;10210;52.284;9.892;2023-05-07T11:53:28;101111.00;;;18.20
20103;BMP180;10210;52.284;9.892;2023-05-07T11:56:00;101107.00;;;18.30
20103;BMP180;10210;52.284;9.892;2023-05-07T11:58:31;101115.00;;;18.30
20103;BMP180;10210;52.284;9.892;2023-05-07T12:00:57;101128.00;;;18.40
20103;BMP180;10210;52.284;9.892;2023-05-07T12:03:22;101128.00;;;18.40
20103;BMP180;10210;52.284;9.892;2023-05-07T12:05:48;101126.00;;;18.50
20103;BMP180;10210;52.284;9.892;2023-05-07T12:08:15;101134.00;;;18.50
20103;BMP180;10210;52.284;9.892;2023-05-07T12:10:48;101124.00;;;18.60
20103;BMP180;10210;52.284;9.892;2023-05-07T12:13:19;101120.00;;;18.60
20103;BMP180;10210;52.284;9.892;2023-05-07T12:15:45;101132.00;;;18.60
20103;BMP180;10210;52.284;9.892;2023-05-07T12:18:12;101132.00;;;18.60
20103;BMP180;10210;52.284;9.892;2023-05-07T12:20:39;101138.00;;;18.60
20103;BMP180;10210;52.284;9.892;2023-05-07T12:23:05;101127.00;;;18.60
20103;BMP180;10210;52.284;9.892;2023-05-07T12:25:34;101137.00;;;18.60
20103;BMP180;10210;52.284;9.892;2023-05-07T12:28:01;101130.00;;;18.50
20103;BMP180;10210;52.284;9.892;2023-05-07T12:30:27;101134.00;;;18.50
20103;BMP180;10210;52.284;9.892;2023-05-07T12:32:54;101127.00;;;18.50
20103;BMP180;10210;52.284;9.892;2023-05-07T12:35:31;101137.00;;;18.40
20103;BMP180;10210;52.284;9.892;2023-05-07T12:37:59;101137.00;;;18.40
20103;BMP180;10210;52.284;9.892;2023-05-07T12:40:36;101138.00;;;18.40
20103;BMP180;10210;52.284;9.892;2023-05-07T12:43:02;101134.00;;;18.40
20103;BMP180;10210;52.284;9.892;2023-05-07T12:45:28;101137.00;;;18.40
20103;BMP180;10210;52.284;9.892;2023-05-07T12:47:54;101131.00;;;18.40
20103;BMP180;10210;52.284;9.892;2023-05-07T12:50:19;101137.00;;;18.40
20103;BMP180;10210;52.284;9.892;2023-05-07T12:52:47;101127.00;;;18.50
20103;BMP180;10210;52.284;9.892;2023-05-07T12:55:17;101134.00;;;18.40
20103;BMP180;10210;52.284;9.892;2023-05-07T12:57:48;101131.00;;;18.40
20103;BMP180;10210;52.284;9.892;2023-05-07T13:00:14;101128.00;;;18.40
20103;BMP180;10210;52.284;9.892;2023-05-07T13:02:42;101123.00;;;18.40
20103;BMP180;10210;52.284;9.892;2023-05-07T13:05:09;101122.00;;;18.40
20103;BMP180;10210;52.284;9.892;2023-05-07T13:07:36;101118.00;;;18.50
20103;BMP180;10210;52.284;9.892;2023-05-07T13:10:02;101109.00;;;18.50
20103;BMP180;10210;52.284;9.892;2023-05-07T13:12:28;101124.00;;;18.50
20103;BMP180;10210;52.284;9.892;2023-05-07T13:14:54;101127.00;;;18.60
20103;BMP180;10210;52.284;9.892;2023-05-07T13:17:19;101117.00;;;18.50
20103;BMP180;10210;52.284;9.892;2023-05-07T13:19:45;101118.00;;;18.60
20103;BMP180;10210;52.284;9.892;2023-05-07T13:22:11;101120.00;;;18.60
20103;BMP180;10210;52.284;9.892;2023-05-07T13:24:36;101129.00;;;18.70
20103;BMP180;10210;52.284;9.892;2023-05-07T13:27:02;101113.00;;;18.70
20103;BMP180;10210;52.284;9.892;2023-05-07T13:29:29;101119.00;;;18.70
20103;BMP180;10210;52.284;9.892;2023-05-07T13:31:59;101105.00;;;18.70
20103;BMP180;10210;52.284;9.892;2023-05-07T13:34:32;101114.00;;;18.80
20103;BMP180;10210;52.284;9.892;2023-05-07T13:37:00;101108.00;;;18.80
20103;BMP180;10210;52.284;9.892;2023-05-07T13:39:27;101116.00;;;18.80
20103;BMP180;10210;52.284;9.892;2023-05-07T13:41:53;101106.00;;;18.70
20103;BMP180;10210;52.284;9.892;2023-05-07T13:44:18;101105.00;;;18.70
20103;BMP180;10210;52.284;9.892;2023-05-07T13:46:44;101111.00;;;18.80
20103;BMP180;10210;52.284;9.892;2023-05-07T13:49:10;101111.00;;;18.80
20103;BMP180;10210;52.284;9.892;2023-05-07T13:51:37;101106.00;;;18.80
20103;BMP180;10210;52.284;9.892;2023-05-07T13:54:03;101114.00;;;18.90
20103;BMP180;10210;52.284;9.892;2023-05-07T13:56:29;101115.00;;;19.00
20103;BMP180;10210;52.284;9.892;2023-05-07T13:58:58;101112.00;;;19.20
20103;BMP180;10210;52.284;9.892;2023-05-07T14:01:24;101112.00;;;19.20
20103;BMP180;10210;52.284;9.892;2023-05-07T14:03:49;101109.00;;;19.30
20103;BMP180;10210;52.284;9.892;2023-05-07T14:06:15;101117.00;;;19.30
20103;BMP180;10210;52.284;9.892;2023-05-07T14:08:40;101120.00;;;19.40
20103;BMP180;10210;52.284;9.892;2023-05-07T14:11:06;101123.00;;;19.40